Time;durP1;ratioP1;P1;durP2;ratioP2;P2;SDS_P1;SDS_P2;PMS_P1;PMS_P2;Temp;Humidity;BMP_temperature;BMP_pressure;BME280_temperature;BME280_humidity;BME280_pressure;Samples;Min_cycle;Max_cycle;Signal;HPM_P1;HPM_P2
2021/07/24 00:01:11;;;;;;;3.58;3.20;;;23.20;48.90;;;;;;5017574;28;20227;-81
2021/07/24 00:03:41;;;;;;;3.03;2.72;;;23.30;49.00;;;;;;5102396;28;20173;-80
2021/07/24 00:06:07;;;;;;;3.05;2.80;;;23.30;48.90;;;;;;5067318;28;20177;-80
2021/07/24 00:08:37;;;;;;;2.83;2.63;;;23.40;49.00;;;;;;5085031;28;20581;-81
2021/07/24 00:11:04;;;;;;;2.97;2.67;;;23.30;49.00;;;;;;5067204;28;20203;-80
2021/07/24 00:13:37;;;;;;;3.10;2.80;;;23.30;49.60;;;;;;5085224;28;20181;-80
2021/07/24 00:16:06;;;;;;;3.05;2.75;;;23.30;48.80;;;;;;5067905;28;20185;-81
2021/07/24 00:18:32;;;;;;;3.80;3.45;;;23.40;48.90;;;;;;5084395;28;20175;-80
2021/07/24 00:21:03;;;;;;;2.80;2.60;;;23.30;48.90;;;;;;5084700;28;20197;-80
2021/07/24 00:23:29;;;;;;;3.25;2.95;;;23.30;48.90;;;;;;5084010;28;20192;-80
2021/07/24 00:26:00;;;;;;;3.00;2.70;;;23.30;48.90;;;;;;5101814;28;20256;-80
2021/07/24 00:28:30;;;;;;;3.33;3.03;;;23.30;49.00;;;;;;5067065;28;20214;-80
2021/07/24 00:31:00;;;;;;;3.10;2.80;;;23.20;48.90;;;;;;5067842;28;20216;-80
2021/07/24 00:33:30;;;;;;;3.15;2.85;;;23.30;49.00;;;;;;5066902;28;20308;-80
2021/07/24 00:35:56;;;;;;;3.28;2.97;;;23.30;49.00;;;;;;5067520;28;20191;-80
2021/07/24 00:38:27;;;;;;;3.15;2.90;;;23.30;49.00;;;;;;5084744;28;20211;-80
2021/07/24 00:40:56;;;;;;;3.08;2.83;;;23.30;48.90;;;;;;5067412;28;20181;-80
2021/07/24 00:43:30;;;;;;;3.20;2.92;;;23.30;49.00;;;;;;5088789;28;20164;-80
2021/07/24 00:45:56;;;;;;;3.30;3.00;;;23.30;48.90;;;;;;5087236;28;20203;-80
2021/07/24 00:48:23;;;;;;;3.00;2.80;;;23.30;48.90;;;;;;5088803;28;20268;-80
2021/07/24 00:50:51;;;;;;;3.20;2.90;;;23.40;49.00;;;;;;5088624;28;20165;-80
2021/07/24 00:53:22;;;;;;;2.90;2.70;;;23.30;48.90;;;;;;5088644;28;20186;-80
2021/07/24 00:55:56;;;;;;;2.80;2.60;;;23.30;48.90;;;;;;5087879;28;20177;-80
2021/07/24 00:58:27;;;;;;;3.30;3.00;;;23.30;48.90;;;;;;5071091;28;20185;-80
2021/07/24 01:00:53;;;;;;;2.90;2.70;;;23.30;48.90;;;;;;5105112;28;20172;-80
2021/07/24 01:03:23;;;;;;;2.80;2.60;;;23.40;48.90;;;;;;5088542;28;20165;-80
2021/07/24 01:05:56;;;;;;;3.00;2.80;;;23.30;48.90;;;;;;5071074;28;20208;-81
2021/07/24 01:08:30;;;;;;;3.13;2.83;;;23.30;48.90;;;;;;5071209;28;20173;-80
2021/07/24 01:11:01;;;;;;;3.35;3.05;;;23.30;48.90;;;;;;5070815;28;20211;-80
2021/07/24 01:13:35;;;;;;;3.40;3.10;;;23.30;48.90;;;;;;5070797;28;20266;-80
2021/07/24 01:16:08;;;;;;;2.88;2.67;;;23.30;48.90;;;;;;5071154;28;20207;-82
2021/07/24 01:18:39;;;;;;;3.20;2.72;;;23.30;48.90;;;;;;5054220;28;20181;-80
2021/07/24 01:21:07;;;;;;;2.97;2.67;;;23.40;48.90;;;;;;5087268;28;20201;-80
2021/07/24 01:23:39;;;;;;;2.90;2.70;;;23.40;48.90;;;;;;5104640;28;20208;-80
2021/07/24 01:26:05;;;;;;;3.08;2.80;;;23.30;48.90;;;;;;5087460;28;20173;-80
2021/07/24 01:28:33;;;;;;;3.15;2.85;;;23.30;48.90;;;;;;5087893;28;20149;-80
2021/07/24 01:31:05;;;;;;;3.20;2.90;;;23.40;49.00;;;;;;5088625;28;20180;-80
2021/07/24 01:33:35;;;;;;;2.85;2.65;;;23.30;48.90;;;;;;5087668;28;20209;-80
2021/07/24 01:36:01;;;;;;;3.17;2.88;;;23.40;49.00;;;;;;5070447;28;20181;-80
2021/07/24 01:38:27;;;;;;;2.75;2.55;;;23.30;48.90;;;;;;5070895;28;20187;-80
2021/07/24 01:40:58;;;;;;;2.80;2.60;;;23.30;48.90;;;;;;5087637;28;20176;-80
2021/07/24 01:43:28;;;;;;;2.70;2.50;;;23.30;48.90;;;;;;5086424;28;20193;-80
2021/07/24 01:45:54;;;;;;;2.80;2.60;;;23.30;48.90;;;;;;5086217;28;20212;-80
2021/07/24 01:48:33;;;;;;;2.90;2.70;;;23.20;48.90;;;;;;5087259;28;20169;-81
2021/07/24 01:53:47;;;;;;;2.80;2.60;;;23.30;48.90;;;;;;5072641;28;20579;-80
2021/07/24 01:56:16;;;;;;;2.97;2.78;;;23.30;48.90;;;;;;5070877;28;20158;-80
2021/07/24 01:58:42;;;;;;;3.15;2.85;;;23.30;48.90;;;;;;5087221;28;20177;-80
2021/07/24 02:01:08;;;;;;;3.10;2.90;;;23.30;48.90;;;;;;5070053;28;20184;-80
2021/07/24 02:03:42;;;;;;;3.10;2.80;;;23.20;48.90;;;;;;5086923;28;20177;-80
2021/07/24 02:06:16;;;;;;;3.00;2.70;;;23.30;49.00;;;;;;5053032;28;20239;-80
2021/07/24 02:08:47;;;;;;;2.78;2.58;;;23.20;49.00;;;;;;5087318;28;20160;-81
2021/07/24 02:11:20;;;;;;;2.80;2.60;;;23.20;49.00;;;;;;5069905;28;20207;-80
2021/07/24 02:13:50;;;;;;;3.20;2.90;;;23.30;49.00;;;;;;5085890;28;20249;-80
2021/07/24 02:16:20;;;;;;;3.00;2.70;;;23.20;49.00;;;;;;5069382;28;20185;-80
2021/07/24 02:18:46;;;;;;;2.83;2.63;;;23.20;49.00;;;;;;5069264;28;20177;-80
2021/07/24 02:21:17;;;;;;;2.80;2.60;;;23.20;48.90;;;;;;5086644;28;20666;-80
2021/07/24 02:23:43;;;;;;;2.90;2.70;;;23.20;49.00;;;;;;5069133;28;20197;-80
2021/07/24 02:26:13;;;;;;;2.92;2.72;;;23.20;49.00;;;;;;5087899;28;20157;-80
2021/07/24 02:28:43;;;;;;;2.97;2.67;;;23.30;49.00;;;;;;5068913;28;20186;-80
2021/07/24 02:31:10;;;;;;;2.70;2.50;;;23.20;49.10;;;;;;5070276;28;20180;-80
2021/07/24 02:33:36;;;;;;;2.83;2.63;;;23.20;49.00;;;;;;5085728;28;20213;-80
2021/07/24 02:36:01;;;;;;;3.00;2.70;;;23.20;49.10;;;;;;5086728;28;20583;-80
2021/07/24 02:38:33;;;;;;;2.80;2.60;;;23.20;49.00;;;;;;5103214;28;20169;-80
2021/07/24 02:41:04;;;;;;;2.83;2.53;;;23.20;49.10;;;;;;5068823;28;20182;-80
2021/07/24 02:43:30;;;;;;;2.65;2.45;;;23.20;49.70;;;;;;5086209;28;20559;-80
2021/07/24 02:45:56;;;;;;;2.65;2.45;;;23.20;49.10;;;;;;5070082;28;20169;-80
2021/07/24 02:48:26;;;;;;;2.70;2.50;;;23.20;49.00;;;;;;5086179;28;20164;-80
2021/07/24 02:50:52;;;;;;;2.75;2.55;;;23.30;49.10;;;;;;5086339;28;20189;-81
2021/07/24 02:53:19;;;;;;;2.80;2.60;;;23.20;49.10;;;;;;5086789;28;20245;-80
2021/07/24 02:55:45;;;;;;;3.00;2.70;;;23.30;49.10;;;;;;5085951;28;20173;-80
2021/07/24 02:58:10;;;;;;;2.97;2.70;;;23.20;49.10;;;;;;5085983;28;20634;-80
2021/07/24 03:00:40;;;;;;;3.20;2.90;;;23.20;49.20;;;;;;5085998;28;20168;-80
2021/07/24 03:03:08;;;;;;;2.92;2.70;;;23.20;49.10;;;;;;5051587;28;20216;-80
2021/07/24 03:05:38;;;;;;;2.90;2.70;;;23.20;49.10;;;;;;5087077;28;20157;-81
2021/07/24 03:08:09;;;;;;;2.60;2.40;;;23.20;49.10;;;;;;5068285;28;20310;-80
2021/07/24 03:10:34;;;;;;;3.05;2.80;;;23.20;49.10;;;;;;5084864;28;20181;-80
2021/07/24 03:13:01;;;;;;;2.80;2.60;;;23.20;49.10;;;;;;5085782;28;20196;-80
2021/07/24 03:15:27;;;;;;;2.65;2.45;;;23.20;49.20;;;;;;5086245;28;20517;-80
2021/07/24 03:17:53;;;;;;;3.22;2.92;;;23.20;49.20;;;;;;5069044;28;20203;-80
2021/07/24 03:20:19;;;;;;;2.88;2.67;;;23.20;49.20;;;;;;5086962;28;20185;-80
2021/07/24 03:22:45;;;;;;;2.88;2.67;;;23.20;49.20;;;;;;5086211;28;20165;-80
2021/07/24 03:25:11;;;;;;;2.80;2.60;;;23.20;49.20;;;;;;5086577;28;20640;-80
2021/07/24 03:27:42;;;;;;;2.80;2.60;;;23.20;49.20;;;;;;5069498;28;20169;-80
2021/07/24 03:30:13;;;;;;;2.67;2.47;;;23.20;49.20;;;;;;5068162;28;20272;-80
2021/07/24 03:32:39;;;;;;;2.88;2.65;;;23.20;49.20;;;;;;5084477;28;20209;-80
2021/07/24 03:35:05;;;;;;;2.90;2.60;;;23.20;49.20;;;;;;5085449;28;20184;-79
2021/07/24 03:37:36;;;;;;;3.03;2.72;;;23.20;49.20;;;;;;5068600;28;20181;-80
2021/07/24 03:40:12;;;;;;;2.70;2.50;;;23.20;49.20;;;;;;5085015;28;20181;-81
2021/07/24 03:42:39;;;;;;;2.80;2.60;;;23.20;49.90;;;;;;5051945;28;20234;-80
2021/07/24 03:45:06;;;;;;;3.08;2.78;;;23.10;49.20;;;;;;5102753;28;20165;-80
2021/07/24 03:47:32;;;;;;;2.60;2.40;;;23.20;49.20;;;;;;5085499;28;20214;-81
2021/07/24 03:49:58;;;;;;;2.83;2.63;;;23.20;49.10;;;;;;5085528;28;20161;-80
2021/07/24 03:52:24;;;;;;;2.70;2.50;;;23.20;49.10;;;;;;5068308;28;20181;-80
2021/07/24 03:54:50;;;;;;;2.70;2.50;;;23.20;49.10;;;;;;5068370;28;20640;-80
2021/07/24 03:57:16;;;;;;;3.13;2.83;;;23.20;49.10;;;;;;5085694;28;20158;-80
2021/07/24 03:59:42;;;;;;;2.92;2.72;;;23.20;49.10;;;;;;5085530;28;20537;-80
2021/07/24 04:02:12;;;;;;;2.80;2.60;;;23.30;49.20;;;;;;5085214;28;20220;-80
2021/07/24 04:04:45;;;;;;;2.95;2.75;;;23.20;49.10;;;;;;5085153;28;20165;-80
2021/07/24 04:07:15;;;;;;;2.95;2.75;;;23.20;49.00;;;;;;5068039;28;20185;-80
2021/07/24 04:09:45;;;;;;;2.70;2.50;;;23.30;49.10;;;;;;5067457;28;20177;-80
2021/07/24 04:12:11;;;;;;;3.17;2.88;;;23.30;49.70;;;;;;5051500;28;20547;-80
2021/07/24 04:14:41;;;;;;;3.30;3.00;;;23.30;49.00;;;;;;5087043;28;20192;-80
2021/07/24 04:17:07;;;;;;;2.53;2.33;;;23.40;49.00;;;;;;5071922;28;20188;-80
2021/07/24 04:19:34;;;;;;;2.70;2.50;;;23.30;48.80;;;;;;5088174;28;20573;-80
2021/07/24 04:22:00;;;;;;;3.60;2.60;;;23.30;48.80;;;;;;5106147;28;20203;-80
2021/07/24 04:24:26;;;;;;;2.80;2.55;;;23.40;48.70;;;;;;5089159;28;20180;-80
2021/07/24 04:26:56;;;;;;;2.75;2.55;;;23.40;48.70;;;;;;5089110;28;20522;-80
2021/07/24 04:29:22;;;;;;;3.00;2.80;;;23.40;48.70;;;;;;5055074;28;20272;-80
2021/07/24 04:31:48;;;;;;;3.22;2.92;;;23.40;48.70;;;;;;5071924;28;20238;-79
2021/07/24 04:34:19;;;;;;;2.58;2.38;;;23.40;48.70;;;;;;5089016;28;20184;-80
2021/07/24 04:36:49;;;;;;;3.30;3.00;;;23.40;48.70;;;;;;5054486;28;20185;-80
2021/07/24 04:39:15;;;;;;;2.97;2.78;;;23.40;48.70;;;;;;5071137;28;20217;-80
2021/07/24 04:41:46;;;;;;;2.80;2.60;;;23.40;48.70;;;;;;5122489;28;20165;-80
2021/07/24 04:44:16;;;;;;;2.80;2.60;;;23.40;48.70;;;;;;5071355;28;20212;-80
2021/07/24 04:46:42;;;;;;;2.70;2.50;;;23.50;48.70;;;;;;5070575;28;20215;-79
2021/07/24 04:49:13;;;;;;;2.90;2.70;;;23.50;48.60;;;;;;5072382;28;20158;-79
2021/07/24 04:51:44;;;;;;;2.92;2.72;;;23.50;48.50;;;;;;5054193;28;20635;-79
2021/07/24 04:54:10;;;;;;;2.80;2.60;;;23.50;48.50;;;;;;5087266;28;20219;-79
2021/07/24 04:56:37;;;;;;;2.88;2.67;;;23.50;48.50;;;;;;5088851;28;20161;-80
2021/07/24 04:59:09;;;;;;;3.15;2.85;;;23.40;48.40;;;;;;5089621;28;20162;-80
2021/07/24 05:01:35;;;;;;;2.85;2.65;;;23.50;49.20;;;;;;5063836;28;20226;-80
2021/07/24 05:04:01;;;;;;;2.88;2.60;;;23.50;48.40;;;;;;5048860;28;20165;-80
2021/07/24 05:06:33;;;;;;;2.58;2.38;;;23.60;48.50;;;;;;5048137;28;20166;-80
2021/07/24 05:09:04;;;;;;;2.78;2.42;;;23.60;48.50;;;;;;5014681;28;20214;-79
2021/07/24 05:11:30;;;;;;;2.80;2.60;;;23.60;48.60;;;;;;5031211;28;20183;-79
2021/07/24 05:14:06;;;;;;;3.13;2.83;;;23.60;48.60;;;;;;5031186;28;20190;-80
2021/07/24 05:16:32;;;;;;;3.10;2.80;;;23.60;48.30;;;;;;5031074;28;20245;-80
2021/07/24 05:19:00;;;;;;;2.70;2.50;;;23.60;48.30;;;;;;5031934;28;20163;-79
2021/07/24 05:21:26;;;;;;;3.00;2.70;;;23.70;48.30;;;;;;5031821;28;20171;-80
2021/07/24 05:23:56;;;;;;;2.90;2.70;;;23.70;48.10;;;;;;5048586;28;20167;-80
2021/07/24 05:26:22;;;;;;;2.92;2.53;;;23.70;48.20;;;;;;5013863;28;20278;-79
2021/07/24 05:28:48;;;;;;;2.80;2.60;;;23.80;48.00;;;;;;5031011;28;20169;-80
2021/07/24 05:31:21;;;;;;;3.42;2.60;;;23.80;47.90;;;;;;5048015;28;20155;-80
2021/07/24 05:33:47;;;;;;;2.92;2.72;;;23.80;47.90;;;;;;5014162;28;20214;-79
2021/07/24 05:36:13;;;;;;;2.88;2.50;;;23.80;47.90;;;;;;5030904;28;20159;-79
2021/07/24 05:38:39;;;;;;;2.90;2.60;;;23.90;47.80;;;;;;5047897;28;20163;-80
2021/07/24 05:41:08;;;;;;;2.67;2.47;;;23.80;47.80;;;;;;5048109;28;20234;-79
2021/07/24 05:43:34;;;;;;;2.67;2.47;;;23.80;47.90;;;;;;5048640;28;20162;-79
2021/07/24 05:46:04;;;;;;;2.92;2.70;;;23.80;47.90;;;;;;5030543;28;20163;-79
2021/07/24 05:48:30;;;;;;;3.03;2.78;;;23.80;47.90;;;;;;5047174;28;20282;-79
2021/07/24 05:51:05;;;;;;;2.70;2.50;;;23.90;48.00;;;;;;5047538;28;20155;-79
2021/07/24 05:53:31;;;;;;;2.90;2.65;;;23.80;47.90;;;;;;5014803;28;20213;-79
2021/07/24 05:55:58;;;;;;;2.80;2.60;;;23.90;47.80;;;;;;5030976;28;20202;-79
2021/07/24 05:58:30;;;;;;;3.10;2.72;;;23.90;47.80;;;;;;5030747;28;20180;-80
2021/07/24 06:00:57;;;;;;;3.28;2.80;;;24.00;47.80;;;;;;5030385;28;20183;-80
2021/07/24 06:03:29;;;;;;;2.95;2.60;;;23.90;47.80;;;;;;5086981;28;20192;-79
2021/07/24 06:05:55;;;;;;;2.80;2.60;;;23.90;47.80;;;;;;5086532;28;20636;-80
2021/07/24 06:08:25;;;;;;;2.65;2.40;;;23.90;47.80;;;;;;5086956;28;20229;-79
2021/07/24 06:10:51;;;;;;;3.05;2.80;;;24.00;47.50;;;;;;5086070;28;20188;-79
2021/07/24 06:13:21;;;;;;;2.90;2.60;;;24.00;47.50;;;;;;5086419;28;20185;-80
2021/07/24 06:15:50;;;;;;;3.03;2.80;;;24.00;47.60;;;;;;5087149;28;20177;-79
2021/07/24 06:18:16;;;;;;;3.03;2.72;;;24.00;47.50;;;;;;5085399;28;20187;-79
2021/07/24 06:20:43;;;;;;;2.80;2.60;;;24.00;47.50;;;;;;5086409;28;20236;-79
2021/07/24 06:23:09;;;;;;;2.42;2.22;;;24.10;47.50;;;;;;5087139;28;20158;-79
2021/07/24 06:25:35;;;;;;;2.90;2.70;;;24.00;47.60;;;;;;5086721;28;20161;-79
2021/07/24 06:28:01;;;;;;;2.78;2.58;;;24.00;47.50;;;;;;5087048;28;20157;-79
2021/07/24 06:30:31;;;;;;;2.58;2.38;;;24.00;47.50;;;;;;5103155;28;20176;-79
2021/07/24 06:33:00;;;;;;;2.60;2.40;;;24.00;47.50;;;;;;5086249;28;20224;-79
2021/07/24 06:35:26;;;;;;;2.85;2.65;;;24.10;47.30;;;;;;5069061;28;20253;-80
2021/07/24 06:37:52;;;;;;;2.60;2.40;;;24.10;47.40;;;;;;5087613;28;20165;-79
2021/07/24 06:40:23;;;;;;;2.97;2.70;;;24.10;47.30;;;;;;5086509;28;20158;-80
2021/07/24 06:42:55;;;;;;;2.60;2.40;;;24.10;47.30;;;;;;5069466;28;20181;-79
2021/07/24 06:45:22;;;;;;;2.53;2.33;;;24.20;47.30;;;;;;5068543;28;20184;-80
2021/07/24 06:47:53;;;;;;;2.63;2.42;;;24.20;47.30;;;;;;5087399;28;20157;-79
2021/07/24 06:50:24;;;;;;;2.78;2.58;;;24.20;47.20;;;;;;5052083;28;20539;-79
2021/07/24 06:52:51;;;;;;;2.88;2.67;;;24.20;47.30;;;;;;5085465;28;20235;-79
2021/07/24 06:55:21;;;;;;;2.80;2.60;;;24.20;47.20;;;;;;5069330;28;20161;-80
2021/07/24 06:57:47;;;;;;;2.85;2.65;;;24.20;47.20;;;;;;5068793;28;20177;-79
2021/07/24 07:00:13;;;;;;;2.42;2.22;;;24.20;47.30;;;;;;5086300;28;20185;-79
2021/07/24 07:02:39;;;;;;;2.60;2.40;;;24.30;47.20;;;;;;5085596;28;20217;-80
2021/07/24 07:05:05;;;;;;;2.90;2.70;;;24.30;47.10;;;;;;5068750;28;20166;-79
2021/07/24 07:07:36;;;;;;;2.78;2.58;;;24.20;47.10;;;;;;5086836;28;20146;-80
2021/07/24 07:10:07;;;;;;;2.88;2.63;;;24.30;47.10;;;;;;5051949;28;20213;-81
2021/07/24 07:12:33;;;;;;;2.67;2.47;;;24.30;47.20;;;;;;5085319;28;20205;-79
2021/07/24 07:14:59;;;;;;;2.83;2.63;;;24.20;47.30;;;;;;5102540;28;20165;-79
2021/07/24 07:17:25;;;;;;;2.80;2.50;;;24.30;47.20;;;;;;5086000;28;20516;-79
2021/07/24 07:19:58;;;;;;;3.08;2.78;;;24.30;47.00;;;;;;5085998;28;20608;-79
2021/07/24 07:22:24;;;;;;;2.90;2.70;;;24.30;47.00;;;;;;5067697;28;20203;-80
2021/07/24 07:24:49;;;;;;;2.67;2.47;;;24.30;47.00;;;;;;5085973;28;20149;-79
2021/07/24 07:27:15;;;;;;;2.92;2.63;;;24.30;47.10;;;;;;5102378;28;20150;-79
2021/07/24 07:29:46;;;;;;;2.85;2.65;;;24.20;47.10;;;;;;5085355;28;20668;-80
2021/07/24 07:32:14;;;;;;;2.63;2.30;;;24.30;46.90;;;;;;5085399;28;20641;-79
2021/07/24 07:34:40;;;;;;;2.85;2.65;;;24.30;47.20;;;;;;5069093;28;20201;-79
2021/07/24 07:37:06;;;;;;;3.38;2.50;;;24.30;47.10;;;;;;5085893;28;20234;-80
2021/07/24 07:39:31;;;;;;;2.75;2.55;;;24.30;47.00;;;;;;5085910;28;20172;-79
2021/07/24 07:42:01;;;;;;;2.65;2.45;;;24.30;47.10;;;;;;5086379;28;20221;-79
2021/07/24 07:44:28;;;;;;;2.67;2.47;;;24.30;47.20;;;;;;5084350;28;20188;-79
2021/07/24 07:46:55;;;;;;;2.92;2.63;;;24.30;47.00;;;;;;5085620;28;20261;-80
2021/07/24 07:49:25;;;;;;;2.90;2.70;;;24.40;47.00;;;;;;5069086;28;20166;-79
2021/07/24 07:51:51;;;;;;;2.97;2.67;;;24.30;47.10;;;;;;5051108;28;20188;-79
2021/07/24 07:54:17;;;;;;;2.75;2.55;;;24.30;47.00;;;;;;5101418;28;20193;-79
2021/07/24 07:56:50;;;;;;;2.67;2.47;;;24.30;47.30;;;;;;5085586;28;20539;-80
2021/07/24 07:59:20;;;;;;;2.42;2.22;;;24.20;47.20;;;;;;5068624;28;20235;-80
2021/07/24 08:01:47;;;;;;;2.70;2.50;;;24.20;47.30;;;;;;5083759;28;20221;-80
2021/07/24 08:04:14;;;;;;;3.05;2.63;;;24.30;47.30;;;;;;5068996;28;20260;-79
2021/07/24 08:06:44;;;;;;;2.65;2.45;;;24.30;47.30;;;;;;5085992;28;20488;-79
2021/07/24 08:09:14;;;;;;;2.50;2.30;;;24.20;47.20;;;;;;5083964;28;20184;-80
2021/07/24 08:11:40;;;;;;;2.88;2.47;;;24.30;47.30;;;;;;5051082;28;20188;-79
2021/07/24 08:14:12;;;;;;;2.70;2.50;;;24.30;47.10;;;;;;5085093;28;20189;-79
2021/07/24 08:16:38;;;;;;;2.42;2.22;;;24.40;47.10;;;;;;5084963;28;20197;-80
2021/07/24 08:19:08;;;;;;;2.65;2.45;;;24.40;47.00;;;;;;5085205;28;20240;-80
2021/07/24 08:21:34;;;;;;;2.72;2.53;;;24.40;47.10;;;;;;5084545;28;20180;-79
2021/07/24 08:24:00;;;;;;;3.00;2.70;;;24.30;47.00;;;;;;5068958;28;20189;-80
2021/07/24 08:26:30;;;;;;;2.88;2.63;;;24.40;46.90;;;;;;5085838;28;20516;-79
2021/07/24 08:28:56;;;;;;;2.95;2.33;;;24.40;46.90;;;;;;5067457;28;20310;-80
2021/07/24 08:31:27;;;;;;;2.60;2.38;;;24.40;47.00;;;;;;5085357;28;20161;-80
2021/07/24 08:33:53;;;;;;;2.65;2.45;;;24.30;47.10;;;;;;5050492;28;20343;-79
2021/07/24 08:36:23;;;;;;;2.67;2.45;;;24.30;47.10;;;;;;5101613;28;20165;-80
2021/07/24 08:38:53;;;;;;;2.95;2.75;;;24.30;47.00;;;;;;5084115;28;20177;-80
2021/07/24 08:41:19;;;;;;;3.03;2.78;;;24.40;47.00;;;;;;5067830;28;20207;-79
2021/07/24 08:43:45;;;;;;;2.95;2.70;;;24.40;47.10;;;;;;5068250;28;20197;-80
2021/07/24 08:46:12;;;;;;;2.95;2.70;;;24.40;47.00;;;;;;5085001;28;20225;-80
2021/07/24 08:48:42;;;;;;;2.65;2.45;;;24.40;47.00;;;;;;5085036;28;20232;-79
2021/07/24 08:51:08;;;;;;;2.75;2.55;;;24.40;47.00;;;;;;5067657;28;20215;-79
2021/07/24 08:53:40;;;;;;;2.60;2.40;;;24.30;47.10;;;;;;5084502;28;20241;-81
2021/07/24 08:56:13;;;;;;;3.13;2.65;;;24.30;47.10;;;;;;5083772;28;20182;-79
2021/07/24 08:58:45;;;;;;;2.50;2.30;;;24.30;47.20;;;;;;5102350;28;20177;-80
2021/07/24 09:01:18;;;;;;;2.70;2.50;;;24.30;47.10;;;;;;5067375;28;20185;-80
2021/07/24 09:03:48;;;;;;;2.90;2.70;;;24.40;47.10;;;;;;5071700;28;20189;-79
2021/07/24 09:06:21;;;;;;;2.65;2.45;;;24.40;47.10;;;;;;5070241;28;20180;-79
2021/07/24 09:08:49;;;;;;;2.70;2.50;;;24.40;47.00;;;;;;5087665;28;20182;-79
2021/07/24 09:11:15;;;;;;;2.70;2.50;;;24.50;46.90;;;;;;5088433;28;20224;-80
2021/07/24 09:13:41;;;;;;;2.90;2.70;;;24.40;46.90;;;;;;5088526;28;20173;-80
2021/07/24 09:16:14;;;;;;;2.60;2.40;;;24.40;47.00;;;;;;5071279;28;20536;-80
2021/07/24 09:18:45;;;;;;;2.90;2.53;;;24.40;46.90;;;;;;5054838;28;20186;-80
2021/07/24 09:21:11;;;;;;;2.83;2.60;;;24.50;46.90;;;;;;5086904;28;20310;-80
2021/07/24 09:23:39;;;;;;;2.95;2.65;;;24.40;46.90;;;;;;5087937;28;20150;-80
2021/07/24 09:26:06;;;;;;;2.58;2.38;;;24.40;46.90;;;;;;5105618;28;20169;-80
2021/07/24 09:28:36;;;;;;;2.67;2.47;;;24.40;46.90;;;;;;5087473;28;20664;-79
2021/07/24 09:31:22;;;;;;;2.78;2.58;;;24.40;47.00;;;;;;5069543;28;20284;-81
2021/07/24 09:33:50;;;;;;;2.72;2.53;;;24.40;46.90;;;;;;5070163;28;20232;-80
2021/07/24 09:36:35;;;;;;;2.67;2.47;;;24.40;46.90;;;;;;5087802;28;20153;-80
2021/07/24 09:39:17;;;;;;;2.80;2.60;;;24.50;46.80;;;;;;5087704;28;20181;-80
2021/07/24 09:41:44;;;;;;;2.80;2.58;;;24.40;47.00;;;;;;5087730;28;20256;-80
2021/07/24 09:44:27;;;;;;;3.67;2.85;;;24.40;47.00;;;;;;5087946;28;20177;-79
2021/07/24 09:46:55;;;;;;;2.80;2.60;;;24.40;47.00;;;;;;5072145;28;20198;-80
2021/07/24 09:49:21;;;;;;;2.88;2.67;;;24.40;47.10;;;;;;5088198;28;20165;-80
2021/07/24 09:51:51;;;;;;;2.50;2.30;;;24.40;47.10;;;;;;5088516;28;20176;-80
2021/07/24 09:54:27;;;;;;;3.00;2.70;;;24.40;47.20;;;;;;5053104;28;20674;-80
2021/07/24 09:56:53;;;;;;;2.88;2.63;;;24.30;47.30;;;;;;5086736;28;20195;-80
2021/07/24 09:59:32;;;;;;;2.53;2.33;;;24.30;47.30;;;;;;5070610;28;20162;-80
2021/07/24 10:02:03;;;;;;;2.72;2.53;;;24.30;47.40;;;;;;5085992;28;20225;-79
2021/07/24 10:04:33;;;;;;;3.58;2.45;;;24.30;47.40;;;;;;5103967;28;20178;-80
2021/07/24 10:07:03;;;;;;;3.03;2.72;;;24.30;47.40;;;;;;5070579;28;20166;-79
2021/07/24 10:09:35;;;;;;;2.80;2.50;;;24.30;47.40;;;;;;5070454;28;20260;-80
2021/07/24 10:12:04;;;;;;;2.90;2.70;;;24.30;47.30;;;;;;5070439;28;20185;-79
2021/07/24 10:14:30;;;;;;;2.78;2.58;;;24.20;47.50;;;;;;5103377;28;20197;-80
2021/07/24 10:17:03;;;;;;;2.47;2.28;;;24.10;47.60;;;;;;5087572;28;20562;-80
2021/07/24 10:19:33;;;;;;;2.53;2.33;;;24.10;47.60;;;;;;5085732;28;20284;-80
2021/07/24 10:22:06;;;;;;;3.10;2.80;;;24.20;47.60;;;;;;5069391;28;20177;-79
2021/07/24 10:24:32;;;;;;;2.72;2.50;;;24.30;47.60;;;;;;5052611;28;20671;-79
2021/07/24 10:27:09;;;;;;;2.90;2.70;;;24.20;47.50;;;;;;5103601;28;20169;-80
2021/07/24 10:29:51;;;;;;;2.75;2.55;;;24.20;47.70;;;;;;5069199;28;20185;-80
2021/07/24 10:32:27;;;;;;;3.00;2.80;;;24.10;47.60;;;;;;5089263;28;20177;-80
2021/07/24 10:34:53;;;;;;;2.90;2.70;;;24.20;47.60;;;;;;5069060;28;20574;-80
2021/07/24 10:37:33;;;;;;;2.50;2.30;;;24.20;47.60;;;;;;5070032;28;20604;-80
2021/07/24 10:40:32;;;;;;;3.17;2.78;;;24.20;47.60;;;;;;5070073;28;20165;-80
2021/07/24 10:43:02;;;;;;;2.85;2.65;;;24.20;47.60;;;;;;5087171;28;20165;-80
2021/07/24 10:45:50;;;;;;;3.03;2.75;;;24.20;47.60;;;;;;5086324;28;20165;-80
2021/07/24 10:48:24;;;;;;;2.83;2.60;;;24.20;47.80;;;;;;5086610;28;20181;-80
2021/07/24 10:51:12;;;;;;;2.80;2.50;;;24.10;47.90;;;;;;5053089;28;20543;-80
2021/07/24 10:54:04;;;;;;;2.80;2.60;;;24.10;47.90;;;;;;5052578;28;20212;-79
2021/07/24 10:56:42;;;;;;;2.75;2.45;;;24.10;47.80;;;;;;5086479;28;20169;-80
2021/07/24 10:59:29;;;;;;;2.92;2.63;;;24.10;47.90;;;;;;5068675;28;20210;-80
2021/07/24 11:01:56;;;;;;;2.97;2.70;;;24.10;48.60;;;;;;5085931;28;20221;-79
2021/07/24 11:04:41;;;;;;;2.85;2.65;;;24.10;47.80;;;;;;5069313;28;20299;-80
2021/07/24 11:07:39;;;;;;;2.80;2.60;;;24.10;47.80;;;;;;5086103;28;20150;-80
2021/07/24 11:10:12;;;;;;;2.80;2.60;;;24.10;47.90;;;;;;5086001;28;20211;-80
2021/07/24 11:12:43;;;;;;;2.80;2.60;;;24.10;48.00;;;;;;5068212;28;20215;-80
2021/07/24 11:15:17;;;;;;;2.65;2.45;;;24.10;48.00;;;;;;5085116;28;20192;-80
2021/07/24 11:18:03;;;;;;;3.10;2.80;;;24.10;48.10;;;;;;5069018;28;20210;-80
2021/07/24 11:20:45;;;;;;;3.10;2.70;;;24.10;47.90;;;;;;5085525;28;20708;-80
2021/07/24 11:23:16;;;;;;;2.60;2.40;;;24.20;47.80;;;;;;5070521;28;20177;-80
2021/07/24 11:25:46;;;;;;;2.80;2.60;;;24.10;47.90;;;;;;5050957;28;20204;-80
2021/07/24 11:28:24;;;;;;;2.97;2.78;;;24.10;48.00;;;;;;5067834;28;20185;-80
2021/07/24 11:31:02;;;;;;;3.05;2.75;;;24.10;48.10;;;;;;5085145;28;20188;-80
2021/07/24 11:33:33;;;;;;;3.03;2.72;;;24.10;48.10;;;;;;5052016;28;20212;-80
2021/07/24 11:36:15;;;;;;;2.95;2.75;;;24.00;48.20;;;;;;5084718;28;20246;-80
2021/07/24 11:38:45;;;;;;;3.15;2.75;;;24.00;48.30;;;;;;5070003;28;20600;-80
2021/07/24 11:41:14;;;;;;;2.75;2.55;;;24.00;48.20;;;;;;5084516;28;20207;-80
2021/07/24 11:43:42;;;;;;;3.20;2.90;;;24.00;48.20;;;;;;5051486;28;20173;-79
2021/07/24 11:46:12;;;;;;;2.90;2.70;;;24.00;48.20;;;;;;5068825;28;20177;-79
2021/07/24 11:48:42;;;;;;;2.90;2.70;;;24.00;48.20;;;;;;5068155;28;20249;-79
2021/07/24 11:51:11;;;;;;;2.60;2.40;;;24.00;48.20;;;;;;5067788;28;20201;-79
2021/07/24 11:53:41;;;;;;;3.22;2.70;;;24.00;48.20;;;;;;5067242;28;20209;-80
2021/07/24 11:56:16;;;;;;;3.05;2.78;;;24.00;48.20;;;;;;5084694;28;20189;-79
2021/07/24 11:58:53;;;;;;;2.80;2.60;;;24.00;48.20;;;;;;5084064;28;20202;-80
2021/07/24 12:01:22;;;;;;;3.13;2.83;;;24.00;48.30;;;;;;5068786;28;20206;-80
2021/07/24 12:04:13;;;;;;;2.88;2.67;;;24.00;48.20;;;;;;5102310;28;20219;-79
2021/07/24 12:06:51;;;;;;;2.90;2.70;;;24.00;48.20;;;;;;5085880;28;20169;-80
2021/07/24 12:09:19;;;;;;;3.13;2.83;;;24.00;48.20;;;;;;5084567;28;20173;-80
2021/07/24 12:11:54;;;;;;;2.60;2.40;;;24.10;48.30;;;;;;5067406;28;20184;-80
2021/07/24 12:14:22;;;;;;;3.00;2.70;;;24.10;48.30;;;;;;5068448;28;20743;-80
2021/07/24 12:17:07;;;;;;;2.97;2.70;;;24.10;48.30;;;;;;5067103;28;20181;-80
2021/07/24 12:19:39;;;;;;;2.80;2.60;;;24.00;48.20;;;;;;5085082;28;20251;-80
2021/07/24 12:22:19;;;;;;;3.90;2.70;;;24.00;48.20;;;;;;5068501;28;20182;-80
2021/07/24 12:24:47;;;;;;;2.90;2.70;;;24.00;48.40;;;;;;5102348;28;20203;-80
2021/07/24 12:27:22;;;;;;;3.17;2.88;;;24.00;48.40;;;;;;5084143;28;20186;-80
2021/07/24 12:29:58;;;;;;;2.58;2.38;;;24.00;48.40;;;;;;5067333;28;20184;-80
2021/07/24 12:32:36;;;;;;;2.85;2.60;;;24.00;48.40;;;;;;5068035;28;20181;-80
2021/07/24 12:35:21;;;;;;;3.00;2.70;;;24.00;48.40;;;;;;5068788;28;20200;-80
2021/07/24 12:37:48;;;;;;;2.72;2.53;;;24.00;48.40;;;;;;5071403;28;20181;-80
2021/07/24 12:40:15;;;;;;;3.35;3.05;;;24.00;48.30;;;;;;5105729;28;20157;-80
2021/07/24 12:42:42;;;;;;;3.08;2.70;;;24.10;48.30;;;;;;5089246;28;20154;-80
2021/07/24 12:45:21;;;;;;;3.25;2.95;;;24.10;48.20;;;;;;5088810;28;20177;-80
2021/07/24 12:47:52;;;;;;;3.00;2.70;;;24.10;48.30;;;;;;5088896;28;20162;-80
2021/07/24 12:50:18;;;;;;;3.22;2.92;;;24.10;48.30;;;;;;5071099;28;20181;-80
2021/07/24 12:52:53;;;;;;;2.95;2.65;;;24.10;48.30;;;;;;5105126;28;20252;-80
2021/07/24 12:55:26;;;;;;;3.10;2.80;;;24.10;48.20;;;;;;5088453;28;20507;-80
2021/07/24 12:57:56;;;;;;;2.78;2.58;;;24.10;48.20;;;;;;5071668;28;20178;-80
2021/07/24 13:00:24;;;;;;;3.25;2.95;;;24.10;48.20;;;;;;5087946;28;20181;-80
2021/07/24 13:02:50;;;;;;;2.90;2.60;;;24.10;48.20;;;;;;5088552;28;20697;-80
2021/07/24 13:05:22;;;;;;;2.83;2.63;;;24.10;48.30;;;;;;5088619;28;20165;-80